createdAt,value
2022-08-26T00:01:13.320Z,4.28
2022-08-26T00:03:40.758Z,5.65
2022-08-26T00:06:08.904Z,5.35
2022-08-26T00:08:39.624Z,5.30
2022-08-26T00:11:09.389Z,4.25
2022-08-26T00:13:37.384Z,4.40
2022-08-26T00:16:05.344Z,4.53
2022-08-26T00:18:33.202Z,7.03
2022-08-26T00:21:08.669Z,7.63
2022-08-26T00:31:11.242Z,4.57
2022-08-26T00:33:44.853Z,4.63
2022-08-26T00:36:20.006Z,4.63
2022-08-26T00:38:48.117Z,4.50
2022-08-26T00:41:17.002Z,6.18
2022-08-26T00:48:35.091Z,26.63
2022-08-26T00:51:08.362Z,22.45
2022-08-26T00:53:41.460Z,13.43
2022-08-26T00:56:19.410Z,8.70
2022-08-26T00:58:48.117Z,6.80
2022-08-26T01:01:16.050Z,9.68
2022-08-26T01:03:44.609Z,5.50
2022-08-26T01:06:13.563Z,4.70
2022-08-26T01:08:41.408Z,5.97
2022-08-26T01:11:12.833Z,6.65
2022-08-26T01:13:40.546Z,4.95
2022-08-26T01:16:12.820Z,5.75
2022-08-26T01:18:42.241Z,4.55
2022-08-26T01:21:16.066Z,7.57
2022-08-26T01:23:49.850Z,5.80
2022-08-26T01:26:24.427Z,4.45
2022-08-26T01:28:56.677Z,4.45
2022-08-26T01:31:29.035Z,4.50
2022-08-26T01:34:03.559Z,4.60
2022-08-26T01:36:31.331Z,4.15
2022-08-26T01:38:58.547Z,5.43
2022-08-26T01:41:27.257Z,4.32
2022-08-26T01:43:57.931Z,7.13
2022-08-26T01:50:34.103Z,5.18
2022-08-26T01:53:06.354Z,4.82
2022-08-26T01:55:34.526Z,4.35
2022-08-26T01:58:06.731Z,4.40
2022-08-26T02:00:36.240Z,4.15
2022-08-26T02:03:21.712Z,4.85
2022-08-26T02:05:58.174Z,4.77
2022-08-26T02:10:55.309Z,6.05
2022-08-26T02:13:32.266Z,4.35
2022-08-26T02:16:01.352Z,3.80
2022-08-26T02:18:32.876Z,4.38
2022-08-26T02:21:00.439Z,4.15
2022-08-26T02:23:27.530Z,5.43
2022-08-26T02:26:09.052Z,4.32
2022-08-26T02:28:58.467Z,4.05
2022-08-26T02:31:25.745Z,4.18
2022-08-26T02:33:52.731Z,4.35
2022-08-26T02:36:25.096Z,5.28
2022-08-26T02:38:56.446Z,4.05
2022-08-26T02:41:23.821Z,4.00
2022-08-26T02:43:51.685Z,4.20
2022-08-26T02:51:21.862Z,10.75
2022-08-26T02:53:49.105Z,4.55
2022-08-26T02:56:15.971Z,7.53
2022-08-26T02:58:42.951Z,4.10
2022-08-26T03:01:21.166Z,5.13
2022-08-26T03:03:49.265Z,4.35
2022-08-26T03:06:17.135Z,4.78
2022-08-26T03:08:44.696Z,5.00
2022-08-26T03:11:12.521Z,5.90
2022-08-26T03:13:40.847Z,3.90
2022-08-26T03:16:08.180Z,4.18
2022-08-26T03:18:35.511Z,3.80
2022-08-26T03:21:11.504Z,4.85
2022-08-26T03:23:39.847Z,4.28
2022-08-26T03:26:08.416Z,6.32
2022-08-26T03:28:58.271Z,4.30
2022-08-26T03:31:25.894Z,4.53
2022-08-26T03:33:56.585Z,11.40
2022-08-26T03:36:30.861Z,3.75
2022-08-26T03:38:58.664Z,6.10
2022-08-26T03:41:25.631Z,4.20
2022-08-26T03:43:52.623Z,3.60
2022-08-26T03:50:34.268Z,4.88
2022-08-26T03:53:07.413Z,5.38
2022-08-26T03:55:40.153Z,4.00
2022-08-26T03:58:07.335Z,4.05
2022-08-26T04:00:34.503Z,5.88
2022-08-26T04:03:03.215Z,4.53
2022-08-26T04:05:30.161Z,4.70
2022-08-26T04:07:57.008Z,5.85
2022-08-26T04:10:29.273Z,3.97
2022-08-26T04:12:58.936Z,5.22
2022-08-26T04:15:27.007Z,5.03
2022-08-26T04:17:54.053Z,4.15
2022-08-26T04:20:22.829Z,5.13
2022-08-26T04:22:50.949Z,4.10
2022-08-26T04:25:18.704Z,5.78
2022-08-26T04:32:46.204Z,4.38
2022-08-26T04:35:13.565Z,8.02
2022-08-26T04:37:43.064Z,4.18
2022-08-26T04:40:11.108Z,4.75
2022-08-26T04:42:37.959Z,4.15
2022-08-26T04:45:11.569Z,5.00
2022-08-26T04:52:41.984Z,8.20
2022-08-26T04:55:09.362Z,5.57
2022-08-26T04:57:39.809Z,5.65
2022-08-26T05:00:11.999Z,5.22
2022-08-26T05:02:39.671Z,15.38
2022-08-26T05:05:08.002Z,7.85
2022-08-26T05:07:35.515Z,4.05
2022-08-26T05:10:04.515Z,4.15
2022-08-26T05:12:35.829Z,5.80
2022-08-26T05:15:05.636Z,6.68
2022-08-26T05:17:33.625Z,4.70
2022-08-26T05:20:00.527Z,6.30
2022-08-26T05:22:27.462Z,4.60
2022-08-26T05:24:54.266Z,6.10
2022-08-26T05:27:23.702Z,5.45
2022-08-26T05:29:54.429Z,6.47
2022-08-26T05:32:21.683Z,4.63
2022-08-26T05:34:48.516Z,4.50
2022-08-26T05:37:19.542Z,4.53
2022-08-26T05:39:51.008Z,4.30
2022-08-26T05:42:19.939Z,7.65
2022-08-26T05:44:53.585Z,4.53
2022-08-26T05:54:26.855Z,6.88
2022-08-26T05:56:53.730Z,4.88
2022-08-26T05:59:24.156Z,4.40
2022-08-26T06:01:52.340Z,10.50
2022-08-26T06:04:20.128Z,5.28
2022-08-26T06:06:47.241Z,4.88
2022-08-26T06:09:14.287Z,5.10
2022-08-26T06:11:44.727Z,5.93
2022-08-26T06:14:11.777Z,5.82
2022-08-26T06:16:45.226Z,5.65
2022-08-26T06:19:14.289Z,7.00
2022-08-26T06:21:45.029Z,8.77
2022-08-26T06:24:32.244Z,7.50
2022-08-26T06:27:09.631Z,6.05
2022-08-26T06:29:38.906Z,5.30
2022-08-26T06:32:06.834Z,6.57
2022-08-26T06:34:34.160Z,12.95
2022-08-26T06:37:06.384Z,8.38
2022-08-26T06:39:33.854Z,7.68
2022-08-26T06:42:01.047Z,11.68
2022-08-26T06:44:30.221Z,9.88
2022-08-26T06:46:57.258Z,6.82
2022-08-26T06:49:26.611Z,5.00
2022-08-26T06:51:58.379Z,9.32
2022-08-26T06:54:26.844Z,8.75
2022-08-26T06:56:53.885Z,11.48
2022-08-26T06:59:21.826Z,7.35
2022-08-26T07:01:49.749Z,9.75
2022-08-26T07:04:20.342Z,6.63
2022-08-26T07:06:52.723Z,7.35
2022-08-26T07:09:24.923Z,7.18
2022-08-26T07:11:52.543Z,8.32
2022-08-26T07:14:21.387Z,6.88
2022-08-26T07:16:50.691Z,6.30
2022-08-26T07:19:29.818Z,8.48
2022-08-26T07:22:03.615Z,9.60
2022-08-26T07:24:32.309Z,10.27
2022-08-26T07:27:06.125Z,8.63
2022-08-26T07:29:34.442Z,7.97
2022-08-26T07:32:01.699Z,9.63
2022-08-26T07:34:28.757Z,8.13
2022-08-26T07:36:57.005Z,6.47
2022-08-26T07:39:31.443Z,7.45
2022-08-26T07:42:08.129Z,9.27
2022-08-26T07:44:39.783Z,9.90
2022-08-26T07:47:24.262Z,8.55
2022-08-26T07:49:54.943Z,6.82
2022-08-26T07:52:26.204Z,6.65
2022-08-26T07:54:55.255Z,9.07
2022-08-26T07:57:22.246Z,8.45
2022-08-26T07:59:51.823Z,8.38
2022-08-26T08:02:21.335Z,7.78
2022-08-26T08:04:48.287Z,12.63
2022-08-26T08:07:15.391Z,8.55
2022-08-26T08:09:42.396Z,6.47
2022-08-26T08:12:14.136Z,9.02
2022-08-26T08:14:42.236Z,8.88
2022-08-26T08:19:39.346Z,6.10
2022-08-26T08:27:08.951Z,11.98
2022-08-26T08:29:37.683Z,7.90
2022-08-26T08:32:05.360Z,9.48
2022-08-26T08:34:35.440Z,10.20
2022-08-26T08:37:03.129Z,11.93
2022-08-26T08:39:32.611Z,8.93
2022-08-26T08:42:08.142Z,11.88
2022-08-26T08:44:40.942Z,8.43
2022-08-26T08:47:24.135Z,8.57
2022-08-26T08:49:54.539Z,6.65
2022-08-26T08:52:36.211Z,8.48
2022-08-26T08:55:05.817Z,9.98
2022-08-26T08:58:02.397Z,11.65
2022-08-26T09:00:46.814Z,9.32
2022-08-26T09:03:28.048Z,10.55
2022-08-26T09:05:58.904Z,7.88
2022-08-26T09:08:30.035Z,8.60
2022-08-26T09:11:00.327Z,11.68
2022-08-26T09:13:28.379Z,9.10
2022-08-26T09:16:10.070Z,11.73
2022-08-26T09:18:59.061Z,14.13
2022-08-26T09:26:30.772Z,10.48
2022-08-26T09:29:04.009Z,14.38
2022-08-26T09:31:36.986Z,8.70
2022-08-26T09:34:17.284Z,10.05
2022-08-26T09:36:53.745Z,10.13
2022-08-26T09:39:24.175Z,8.68
2022-08-26T09:42:19.344Z,9.70
2022-08-26T09:45:06.498Z,10.40
2022-08-26T09:47:56.027Z,8.60
2022-08-26T09:50:55.188Z,12.48
2022-08-26T09:53:30.306Z,9.23
2022-08-26T09:56:25.511Z,12.77
2022-08-26T09:58:56.059Z,11.77
2022-08-26T10:01:40.193Z,14.10
2022-08-26T10:04:13.956Z,16.88
2022-08-26T10:06:54.142Z,10.77
2022-08-26T10:09:22.753Z,14.82
2022-08-26T10:11:57.154Z,11.23
2022-08-26T10:14:35.403Z,9.88
2022-08-26T10:17:21.879Z,11.55
2022-08-26T10:19:57.829Z,14.15
2022-08-26T10:22:37.217Z,9.32
2022-08-26T10:25:09.263Z,13.38
2022-08-26T10:27:40.596Z,12.23
2022-08-26T10:30:21.327Z,9.60
2022-08-26T10:33:04.755Z,10.27
2022-08-26T10:35:33.220Z,11.73
2022-08-26T10:38:11.333Z,11.63
2022-08-26T10:41:00.539Z,13.55
2022-08-26T10:43:41.568Z,14.75
2022-08-26T10:46:16.971Z,12.70
2022-08-26T10:48:56.370Z,12.52
2022-08-26T10:51:36.501Z,16.05
2022-08-26T10:54:15.598Z,10.20
2022-08-26T10:56:54.370Z,10.20
2022-08-26T10:59:44.247Z,15.88
2022-08-26T11:02:15.968Z,12.32
2022-08-26T11:04:48.422Z,12.73
2022-08-26T11:07:37.007Z,14.48
2022-08-26T11:10:18.769Z,13.23
2022-08-26T11:12:49.300Z,12.55
2022-08-26T11:15:24.746Z,10.73
2022-08-26T11:17:52.111Z,10.05
2022-08-26T11:20:39.298Z,15.90
2022-08-26T11:28:06.088Z,9.75
2022-08-26T11:30:37.778Z,11.75
2022-08-26T11:33:05.406Z,11.70
2022-08-26T11:35:37.460Z,9.73
2022-08-26T11:38:28.231Z,9.93
2022-08-26T11:41:09.882Z,12.57
2022-08-26T11:43:39.476Z,9.77
2022-08-26T11:46:10.695Z,12.63
2022-08-26T11:48:43.354Z,13.20
2022-08-26T11:51:22.472Z,11.05
2022-08-26T11:53:49.778Z,9.32
2022-08-26T11:56:32.462Z,9.05
2022-08-26T11:59:03.608Z,8.93
2022-08-26T12:01:43.897Z,9.93
2022-08-26T12:04:26.490Z,12.45
2022-08-26T12:06:53.916Z,10.70
2022-08-26T12:09:22.454Z,10.63
2022-08-26T12:11:49.628Z,12.18
2022-08-26T12:14:27.716Z,10.82
2022-08-26T12:16:54.959Z,9.82
2022-08-26T12:19:27.608Z,11.10
2022-08-26T12:22:10.527Z,12.43
2022-08-26T12:25:36.091Z,11.18
2022-08-26T12:28:05.528Z,10.52
2022-08-26T12:30:32.453Z,8.95
2022-08-26T12:33:22.043Z,10.70
2022-08-26T12:35:54.366Z,8.50
2022-08-26T12:38:22.472Z,8.85
2022-08-26T12:40:50.442Z,6.95
2022-08-26T12:43:39.401Z,7.65
2022-08-26T12:46:07.690Z,7.28
2022-08-26T12:48:38.525Z,7.97
2022-08-26T12:51:17.108Z,6.38
2022-08-26T12:53:44.688Z,7.03
2022-08-26T12:56:39.454Z,6.22
2022-08-26T12:59:23.832Z,8.63
2022-08-26T13:01:52.352Z,10.05
2022-08-26T13:04:31.348Z,10.63
2022-08-26T13:07:25.537Z,11.80
2022-08-26T13:09:56.097Z,10.43
2022-08-26T13:12:32.189Z,8.80
2022-08-26T13:15:00.739Z,9.48
2022-08-26T13:17:29.850Z,80.90
2022-08-26T13:20:04.190Z,52.40
2022-08-26T13:22:33.413Z,57.90
2022-08-26T13:25:58.776Z,25.10
2022-08-26T13:28:36.706Z,24.08
2022-08-26T13:31:09.988Z,23.25
2022-08-26T13:33:48.591Z,32.33
2022-08-26T13:36:17.555Z,58.25
2022-08-26T13:38:44.680Z,43.35
2022-08-26T13:41:15.375Z,42.28
2022-08-26T13:43:43.539Z,38.50
2022-08-26T13:46:10.442Z,33.13
2022-08-26T13:48:38.185Z,33.70
2022-08-26T13:51:08.153Z,40.45
2022-08-26T13:53:35.866Z,36.53
2022-08-26T13:56:03.889Z,40.28
2022-08-26T13:58:32.845Z,41.42
2022-08-26T14:01:00.086Z,38.38
2022-08-26T14:03:26.986Z,36.90
2022-08-26T14:05:53.919Z,37.58
2022-08-26T14:08:22.273Z,39.72
2022-08-26T14:10:49.859Z,31.92
2022-08-26T14:13:17.056Z,34.97
2022-08-26T14:15:43.933Z,31.35
2022-08-26T14:18:16.853Z,25.27
2022-08-26T14:20:48.414Z,28.02
2022-08-26T14:23:16.230Z,28.10
2022-08-26T14:26:40.021Z,26.63
2022-08-26T14:29:09.006Z,23.30
2022-08-26T14:31:37.874Z,28.75
2022-08-26T14:34:06.858Z,26.20
2022-08-26T14:36:35.376Z,22.38
2022-08-26T14:39:11.026Z,24.63
2022-08-26T14:41:54.299Z,26.17
2022-08-26T14:44:24.379Z,23.17
2022-08-26T14:46:52.903Z,25.50
2022-08-26T14:49:22.128Z,25.63
2022-08-26T14:51:49.866Z,28.48
2022-08-26T14:54:18.343Z,30.02
2022-08-26T14:56:51.257Z,31.00
2022-08-26T14:59:27.144Z,31.15
2022-08-26T15:01:55.040Z,36.40
2022-08-26T15:04:23.262Z,37.97
2022-08-26T15:06:52.019Z,38.63
2022-08-26T15:09:19.045Z,41.40
2022-08-26T15:11:50.721Z,34.33
2022-08-26T15:14:19.529Z,34.45
2022-08-26T15:16:56.052Z,37.17
2022-08-26T15:21:51.529Z,35.30
2022-08-26T15:25:15.464Z,32.17
2022-08-26T15:27:45.520Z,30.20
2022-08-26T15:30:12.725Z,31.38
2022-08-26T15:32:39.828Z,29.00
2022-08-26T15:35:09.279Z,30.23
2022-08-26T15:37:36.646Z,28.80
2022-08-26T15:40:09.233Z,25.02
2022-08-26T15:42:36.389Z,24.77
2022-08-26T15:45:03.652Z,28.13
2022-08-26T15:47:31.087Z,24.17
2022-08-26T15:50:04.631Z,24.35
2022-08-26T15:52:34.631Z,22.58
2022-08-26T15:57:32.732Z,21.00
2022-08-26T16:00:00.058Z,20.17
2022-08-26T16:02:30.435Z,22.20
2022-08-26T16:05:02.686Z,23.42
2022-08-26T16:07:31.480Z,16.95
2022-08-26T16:09:58.443Z,20.80
2022-08-26T16:12:25.372Z,18.95
2022-08-26T16:15:03.913Z,19.60
2022-08-26T16:17:31.411Z,21.48
2022-08-26T16:20:04.586Z,15.20
2022-08-26T16:22:31.801Z,13.63
2022-08-26T16:25:22.145Z,18.58
2022-08-26T16:27:49.955Z,20.23
2022-08-26T16:30:17.052Z,18.40
2022-08-26T16:32:52.438Z,20.23
2022-08-26T16:35:19.353Z,16.60
2022-08-26T16:37:47.483Z,17.50
2022-08-26T16:40:18.756Z,16.60
2022-08-26T16:42:46.276Z,13.60
2022-08-26T16:45:13.212Z,15.10
2022-08-26T16:47:40.575Z,12.85
2022-08-26T16:50:13.669Z,12.77
2022-08-26T16:52:41.549Z,12.88
2022-08-26T16:55:26.431Z,11.52
2022-08-26T16:57:56.970Z,13.63
2022-08-26T17:00:28.179Z,12.90
2022-08-26T17:03:01.283Z,13.82
2022-08-26T17:05:31.143Z,10.98
2022-08-26T17:07:59.708Z,11.35
2022-08-26T17:10:32.541Z,9.68
2022-08-26T17:13:00.353Z,11.57
2022-08-26T17:15:27.409Z,10.95
2022-08-26T17:17:54.822Z,9.85
2022-08-26T17:20:24.732Z,9.18
2022-08-26T17:22:56.397Z,13.45
2022-08-26T17:30:21.057Z,9.75
2022-08-26T17:32:48.682Z,12.02
2022-08-26T17:35:16.832Z,11.05
2022-08-26T17:37:44.462Z,10.38
2022-08-26T17:40:17.133Z,14.23
2022-08-26T17:42:44.182Z,11.88
2022-08-26T17:45:12.386Z,11.25
2022-08-26T17:47:39.693Z,11.88
2022-08-26T17:50:11.669Z,12.23
2022-08-26T17:52:39.501Z,15.35
2022-08-26T17:55:09.070Z,10.27
2022-08-26T17:57:40.846Z,10.18
2022-08-26T18:00:17.572Z,14.55
2022-08-26T18:02:47.739Z,10.65
2022-08-26T18:05:17.502Z,15.45
2022-08-26T18:07:44.908Z,11.57
2022-08-26T18:10:19.945Z,13.63
2022-08-26T18:12:47.749Z,17.05
2022-08-26T18:15:21.306Z,15.65
2022-08-26T18:17:48.123Z,11.95
2022-08-26T18:20:20.801Z,18.73
2022-08-26T18:22:50.239Z,17.25
2022-08-26T18:25:17.717Z,17.38
2022-08-26T18:28:41.410Z,17.05
2022-08-26T18:31:09.009Z,17.52
2022-08-26T18:33:35.943Z,16.08
2022-08-26T18:36:09.214Z,19.02
2022-08-26T18:38:36.144Z,14.98
2022-08-26T18:41:04.733Z,15.93
2022-08-26T18:43:31.662Z,14.77
2022-08-26T18:46:08.867Z,17.90
2022-08-26T18:48:38.891Z,15.63
2022-08-26T18:51:15.162Z,16.25
2022-08-26T18:53:44.424Z,17.70
2022-08-26T18:56:18.540Z,17.60
2022-08-26T18:58:45.983Z,17.50
2022-08-26T19:01:18.263Z,15.45
2022-08-26T19:03:46.694Z,18.42
2022-08-26T19:06:23.899Z,15.30
2022-08-26T19:08:50.875Z,19.00
2022-08-26T19:11:31.203Z,15.48
2022-08-26T19:14:20.303Z,17.40
2022-08-26T19:16:50.025Z,20.42
2022-08-26T19:19:17.340Z,14.15
2022-08-26T19:21:44.468Z,18.08
2022-08-26T19:24:17.454Z,14.40
2022-08-26T19:27:40.843Z,15.00
2022-08-26T19:30:08.306Z,18.48
2022-08-26T19:32:35.477Z,13.45
2022-08-26T19:35:03.104Z,12.13
2022-08-26T19:37:29.973Z,15.65
2022-08-26T19:39:57.188Z,16.00
2022-08-26T19:42:24.259Z,12.30
2022-08-26T19:45:24.309Z,15.90
2022-08-26T19:47:53.609Z,13.90
2022-08-26T19:50:22.066Z,11.55
2022-08-26T19:52:49.372Z,11.77
2022-08-26T19:55:17.796Z,13.40
2022-08-26T19:57:45.220Z,12.88
2022-08-26T20:00:15.098Z,13.50
2022-08-26T20:02:43.891Z,10.93
2022-08-26T20:05:13.185Z,9.52
2022-08-26T20:07:40.251Z,9.95
2022-08-26T20:10:11.917Z,9.65
2022-08-26T20:12:40.711Z,9.98
2022-08-26T20:15:10.048Z,10.18
2022-08-26T20:17:37.252Z,14.60
2022-08-26T20:20:32.945Z,9.68
2022-08-26T20:23:03.662Z,9.23
2022-08-26T20:25:36.759Z,10.20
2022-08-26T20:29:00.255Z,12.90
2022-08-26T20:31:28.220Z,9.07
2022-08-26T20:33:55.615Z,8.75
2022-08-26T20:36:28.130Z,9.57
2022-08-26T20:38:56.830Z,10.18
2022-08-26T20:41:25.649Z,10.10
2022-08-26T20:43:56.296Z,10.35
2022-08-26T20:46:25.094Z,10.00
2022-08-26T20:48:53.038Z,9.57
2022-08-26T20:51:23.650Z,9.68
2022-08-26T20:53:50.996Z,11.68
2022-08-26T20:56:24.329Z,11.90
2022-08-26T20:58:53.487Z,9.48
2022-08-26T21:01:23.485Z,10.05
2022-08-26T21:03:57.066Z,11.60
2022-08-26T21:06:24.578Z,11.38
2022-08-26T21:08:51.519Z,9.25
2022-08-26T21:11:20.760Z,10.07
2022-08-26T21:14:04.333Z,8.65
2022-08-26T21:16:36.733Z,10.70
2022-08-26T21:19:08.784Z,9.27
2022-08-26T21:21:35.878Z,8.93
2022-08-26T21:24:03.326Z,8.23
2022-08-26T21:26:30.268Z,8.70
2022-08-26T21:29:53.708Z,10.38
2022-08-26T21:32:20.636Z,9.23
2022-08-26T21:34:47.756Z,9.93
2022-08-26T21:37:16.625Z,8.05
2022-08-26T21:39:44.300Z,13.10
2022-08-26T21:42:11.231Z,10.13
2022-08-26T21:44:38.410Z,8.70
2022-08-26T21:47:05.531Z,9.35
2022-08-26T21:49:32.375Z,10.65
2022-08-26T21:52:01.692Z,9.35
2022-08-26T21:54:28.560Z,7.88
2022-08-26T21:56:55.518Z,8.35
2022-08-26T21:59:22.409Z,10.20
2022-08-26T22:01:49.584Z,9.27
2022-08-26T22:04:17.244Z,9.80
2022-08-26T22:06:49.797Z,10.60
2022-08-26T22:09:22.502Z,9.82
2022-08-26T22:11:49.567Z,11.23
2022-08-26T22:14:17.728Z,16.45
2022-08-26T22:16:50.275Z,7.93
2022-08-26T22:19:20.071Z,10.48
2022-08-26T22:21:50.084Z,8.60
2022-08-26T22:24:19.022Z,8.48
2022-08-26T22:26:46.623Z,8.85
2022-08-26T22:34:10.834Z,11.45
2022-08-26T22:36:43.584Z,8.02
2022-08-26T22:39:15.452Z,9.18
2022-08-26T22:41:44.016Z,10.82
2022-08-26T22:44:12.143Z,8.75
2022-08-26T22:46:40.119Z,11.35
2022-08-26T22:49:09.569Z,11.63
2022-08-26T22:51:36.499Z,7.85
2022-08-26T22:54:03.441Z,10.48
2022-08-26T22:56:30.378Z,8.00
2022-08-26T22:58:57.272Z,8.20
2022-08-26T23:01:24.216Z,6.88
2022-08-26T23:03:51.083Z,7.45
2022-08-26T23:06:17.981Z,7.55
2022-08-26T23:08:46.482Z,7.90
2022-08-26T23:11:14.264Z,7.38
2022-08-26T23:13:41.196Z,8.48
2022-08-26T23:16:11.043Z,10.23
2022-08-26T23:18:39.329Z,8.07
2022-08-26T23:21:06.908Z,12.88
2022-08-26T23:23:35.336Z,9.75
2022-08-26T23:26:06.154Z,7.20
2022-08-26T23:29:30.097Z,14.18
2022-08-26T23:31:57.075Z,7.47
2022-08-26T23:34:42.468Z,12.52
2022-08-26T23:37:09.353Z,7.68
2022-08-26T23:39:36.973Z,8.48
2022-08-26T23:42:06.005Z,9.98
2022-08-26T23:48:40.972Z,7.97
2022-08-26T23:51:26.578Z,10.25
2022-08-26T23:53:53.584Z,7.80
2022-08-26T23:56:20.408Z,9.35
2022-08-26T23:58:47.835Z,6.72
